Time;durP1;ratioP1;P1;durP2;ratioP2;P2;SDS_P1;SDS_P2;PMS_P1;PMS_P2;Temp;Humidity;BMP_temperature;BMP_pressure;BME280_temperature;BME280_humidity;BME280_pressure;Samples;Min_cycle;Max_cycle;Signal;HPM_P1;HPM_P2
2022/04/09 00:02:19;;;;;;;10.65;8.32;;;5.50;99.90;;;;;;5116163;28;20028;-71
2022/04/09 00:04:44;;;;;;;11.25;8.75;;;5.40;99.90;;;;;;5114861;28;20012;-72
2022/04/09 00:07:10;;;;;;;9.40;8.02;;;5.40;99.90;;;;;;5116235;28;20095;-72
2022/04/09 00:09:35;;;;;;;13.40;8.43;;;5.50;99.90;;;;;;5116096;28;20496;-74
2022/04/09 00:12:02;;;;;;;9.07;7.60;;;5.40;99.90;;;;;;5116038;28;20409;-71
2022/04/09 00:14:28;;;;;;;10.88;7.88;;;5.40;99.90;;;;;;5114740;28;20015;-74
2022/04/09 00:16:53;;;;;;;9.63;8.13;;;5.50;99.90;;;;;;5115901;28;20030;-72
2022/04/09 00:19:19;;;;;;;12.57;8.18;;;5.50;99.90;;;;;;5114642;28;20023;-73
2022/04/09 00:21:46;;;;;;;14.95;10.20;;;5.50;99.90;;;;;;5115901;28;20024;-73
2022/04/09 00:24:12;;;;;;;13.05;8.60;;;5.60;99.90;;;;;;5115636;28;20477;-74
2022/04/09 00:26:38;;;;;;;10.80;8.40;;;5.60;99.90;;;;;;5115776;28;20023;-71
2022/04/09 00:29:04;;;;;;;11.85;8.70;;;5.50;99.90;;;;;;5115661;28;20473;-73
2022/04/09 00:31:29;;;;;;;13.60;9.23;;;5.50;99.90;;;;;;5115258;28;20036;-71
2022/04/09 00:33:55;;;;;;;14.90;10.30;;;5.50;99.90;;;;;;5114419;28;20020;-73
2022/04/09 00:36:21;;;;;;;12.32;9.10;;;5.50;99.90;;;;;;5115653;28;20031;-72
2022/04/09 00:38:46;;;;;;;13.02;8.90;;;5.50;99.90;;;;;;5115531;28;20024;-72
2022/04/09 00:41:12;;;;;;;11.18;8.50;;;5.40;99.90;;;;;;5115425;28;20011;-71
2022/04/09 00:43:41;;;;;;;17.27;10.88;;;5.50;99.90;;;;;;5115501;28;20020;-73
2022/04/09 00:46:08;;;;;;;19.08;10.50;;;5.50;99.90;;;;;;5115295;28;20052;-72
2022/04/09 00:48:36;;;;;;;14.10;9.27;;;5.50;99.90;;;;;;5114100;28;20094;-72
2022/04/09 00:51:02;;;;;;;14.10;9.27;;;5.60;99.90;;;;;;5115247;28;20032;-72
2022/04/09 00:53:33;;;;;;;10.43;7.50;;;5.50;99.90;;;;;;5115243;28;20493;-73
2022/04/09 00:56:16;;;;;;;8.23;7.13;;;5.50;99.90;;;;;;5115149;28;20110;-73
2022/04/09 00:59:11;;;;;;;9.38;8.20;;;5.40;99.90;;;;;;5115128;28;20045;-74
2022/04/09 01:01:39;;;;;;;8.98;6.75;;;5.50;99.90;;;;;;5113022;28;20031;-72
2022/04/09 01:04:10;;;;;;;14.77;9.77;;;5.50;99.90;;;;;;5113746;28;20057;-71
2022/04/09 01:06:37;;;;;;;24.67;14.75;;;5.50;99.90;;;;;;5114990;28;20027;-73
2022/04/09 01:09:04;;;;;;;24.92;13.38;;;5.50;99.90;;;;;;5113661;28;20468;-72
2022/04/09 01:11:30;;;;;;;42.95;22.30;;;5.50;99.90;;;;;;5113444;28;20043;-72
2022/04/09 01:13:56;;;;;;;48.10;23.23;;;5.40;99.90;;;;;;5114828;28;20426;-73
2022/04/09 01:16:22;;;;;;;41.10;19.30;;;5.40;99.90;;;;;;5114818;28;20024;-72
2022/04/09 01:18:48;;;;;;;31.13;16.75;;;5.40;99.90;;;;;;5114683;28;20022;-72
2022/04/09 01:21:14;;;;;;;16.73;10.55;;;5.50;99.90;;;;;;5113369;28;20023;-73
2022/04/09 01:23:39;;;;;;;14.50;8.90;;;5.50;99.90;;;;;;5114677;28;20495;-73
2022/04/09 01:26:08;;;;;;;13.88;9.50;;;5.50;99.90;;;;;;5114527;28;20541;-74
2022/04/09 01:28:35;;;;;;;11.52;8.68;;;5.40;99.90;;;;;;5114461;28;20031;-74
2022/04/09 01:31:00;;;;;;;17.92;10.68;;;5.40;99.90;;;;;;5113016;28;20032;-73
2022/04/09 01:33:26;;;;;;;18.92;10.85;;;5.30;99.90;;;;;;5114328;28;20390;-72
2022/04/09 01:35:52;;;;;;;24.77;13.65;;;5.40;99.90;;;;;;5114417;28;20099;-71
2022/04/09 01:38:18;;;;;;;18.10;10.77;;;5.30;99.90;;;;;;5114412;28;20054;-73
2022/04/09 01:40:43;;;;;;;16.38;10.38;;;5.30;99.90;;;;;;5113013;28;20015;-75
2022/04/09 01:43:09;;;;;;;12.43;7.97;;;5.30;99.90;;;;;;5114268;28;20091;-73
2022/04/09 01:45:35;;;;;;;12.68;8.57;;;5.30;99.90;;;;;;5114362;28;20100;-73
2022/04/09 01:48:01;;;;;;;14.57;9.43;;;5.30;99.90;;;;;;5112814;28;20517;-73
2022/04/09 01:50:27;;;;;;;11.52;8.55;;;5.30;99.90;;;;;;5113986;28;20106;-74
2022/04/09 01:52:55;;;;;;;14.20;8.38;;;5.40;99.90;;;;;;5114146;28;20024;-74
2022/04/09 01:55:21;;;;;;;12.50;8.52;;;5.40;99.90;;;;;;5113828;28;20027;-72
2022/04/09 01:57:48;;;;;;;16.83;10.18;;;5.50;99.90;;;;;;5112896;28;20024;-71
2022/04/09 02:00:16;;;;;;;14.88;9.93;;;5.40;99.90;;;;;;5114184;28;20020;-71
2022/04/09 02:02:42;;;;;;;12.43;9.18;;;5.40;99.90;;;;;;5114018;28;20059;-71
2022/04/09 02:05:11;;;;;;;12.65;8.90;;;5.50;99.90;;;;;;5113902;28;20023;-74
2022/04/09 02:07:37;;;;;;;14.10;8.20;;;5.40;99.90;;;;;;5113994;28;20023;-71
2022/04/09 02:10:04;;;;;;;13.90;9.95;;;5.40;99.90;;;;;;5112029;28;20034;-71
2022/04/09 02:12:34;;;;;;;15.00;9.45;;;5.40;99.90;;;;;;5113718;28;20033;-73
2022/04/09 02:15:08;;;;;;;12.57;8.52;;;5.40;99.90;;;;;;5112383;28;20023;-73
2022/04/09 02:17:35;;;;;;;12.45;9.57;;;5.40;99.90;;;;;;5113649;28;20012;-70
2022/04/09 02:20:05;;;;;;;12.43;9.23;;;5.40;99.90;;;;;;5113635;28;20050;-73
2022/04/09 02:22:38;;;;;;;16.98;9.15;;;5.50;99.90;;;;;;5113604;28;20019;-71
2022/04/09 02:25:09;;;;;;;14.38;9.52;;;5.40;99.90;;;;;;5113436;28;20019;-74
2022/04/09 02:27:34;;;;;;;11.05;8.20;;;5.40;99.90;;;;;;5113185;28;20477;-71
2022/04/09 02:30:01;;;;;;;13.35;8.60;;;5.30;99.90;;;;;;5113620;28;20062;-72
2022/04/09 02:32:26;;;;;;;12.85;8.48;;;5.20;99.90;;;;;;5111908;28;20051;-73
2022/04/09 02:34:53;;;;;;;14.10;8.73;;;5.10;99.90;;;;;;5113489;28;20389;-71
2022/04/09 02:37:20;;;;;;;14.63;10.18;;;5.00;99.90;;;;;;5112169;28;20102;-72
2022/04/09 02:39:46;;;;;;;15.45;9.48;;;4.90;99.90;;;;;;5113467;28;20027;-72
2022/04/09 02:42:12;;;;;;;12.82;9.05;;;4.90;99.90;;;;;;5112087;28;20027;-73
2022/04/09 02:44:38;;;;;;;12.60;8.18;;;4.90;99.90;;;;;;5113378;28;20019;-71
2022/04/09 02:47:04;;;;;;;12.50;8.82;;;4.90;99.90;;;;;;5112078;28;20034;-73
2022/04/09 02:49:29;;;;;;;11.73;8.80;;;4.90;99.90;;;;;;5113285;28;20081;-74
2022/04/09 02:51:55;;;;;;;12.70;8.82;;;4.90;99.90;;;;;;5111908;28;20036;-73
2022/04/09 02:54:20;;;;;;;12.63;8.88;;;4.90;99.90;;;;;;5111872;28;20072;-71
2022/04/09 02:56:48;;;;;;;15.38;10.55;;;4.80;99.90;;;;;;5113109;28;20431;-72
2022/04/09 02:59:14;;;;;;;18.10;11.32;;;4.80;99.90;;;;;;5111935;28;20438;-71
2022/04/09 03:01:42;;;;;;;15.95;10.77;;;4.80;99.90;;;;;;5113163;28;20027;-71
2022/04/09 03:04:08;;;;;;;16.85;11.40;;;4.80;99.90;;;;;;5113216;28;20099;-72
2022/04/09 03:06:34;;;;;;;17.13;11.05;;;4.80;99.90;;;;;;5111844;28;20085;-71
2022/04/09 03:08:59;;;;;;;19.33;12.55;;;4.80;99.90;;;;;;5113128;28;20024;-73
2022/04/09 03:11:25;;;;;;;22.42;12.77;;;4.80;99.90;;;;;;5111593;28;20031;-72
2022/04/09 03:13:50;;;;;;;20.20;12.65;;;4.80;99.90;;;;;;5112990;28;20571;-74
2022/04/09 03:16:16;;;;;;;19.98;12.63;;;4.80;99.90;;;;;;5111782;28;20030;-72
2022/04/09 03:18:41;;;;;;;21.33;12.95;;;4.80;99.90;;;;;;5112966;28;20098;-73
2022/04/09 03:21:07;;;;;;;21.02;12.52;;;4.80;99.90;;;;;;5115267;28;20081;-72
2022/04/09 03:23:33;;;;;;;22.27;13.50;;;4.80;99.90;;;;;;5116795;28;20068;-72
2022/04/09 03:25:59;;;;;;;24.08;14.45;;;4.80;99.90;;;;;;5116918;28;20482;-73
2022/04/09 03:28:24;;;;;;;25.35;14.68;;;4.80;99.90;;;;;;5116801;28;20566;-74
2022/04/09 03:30:50;;;;;;;22.13;12.55;;;4.80;99.90;;;;;;5116556;28;20036;-73
2022/04/09 03:33:16;;;;;;;25.30;14.38;;;4.80;99.90;;;;;;5116860;28;20520;-72
2022/04/09 03:35:42;;;;;;;25.15;15.70;;;4.80;99.90;;;;;;5116738;28;20030;-73
2022/04/09 03:38:12;;;;;;;25.35;15.40;;;4.80;99.90;;;;;;5116671;28;20103;-71
2022/04/09 03:40:38;;;;;;;25.92;15.43;;;4.80;99.90;;;;;;5116635;28;20094;-72
2022/04/09 03:43:04;;;;;;;27.55;16.95;;;4.80;99.90;;;;;;5116780;27;20056;-73
2022/04/09 03:45:29;;;;;;;25.42;15.52;;;4.80;99.90;;;;;;5116537;28;20114;-71
2022/04/09 03:47:55;;;;;;;26.73;15.98;;;4.80;99.90;;;;;;5115249;28;20015;-71
2022/04/09 03:50:21;;;;;;;27.50;15.35;;;4.70;99.90;;;;;;5114377;28;20034;-72
2022/04/09 03:52:48;;;;;;;28.15;17.70;;;4.70;99.90;;;;;;5114303;28;20020;-74
2022/04/09 03:55:14;;;;;;;27.58;15.75;;;4.70;99.90;;;;;;5114400;28;20019;-73
2022/04/09 03:57:39;;;;;;;29.55;16.48;;;4.70;99.90;;;;;;5113057;28;20434;-73
2022/04/09 04:00:08;;;;;;;29.02;15.48;;;4.70;99.90;;;;;;5114280;28;20055;-71
2022/04/09 04:02:34;;;;;;;28.85;16.52;;;4.80;99.90;;;;;;5112719;28;20549;-73
2022/04/09 04:05:03;;;;;;;31.42;18.48;;;4.80;99.90;;;;;;5114032;28;20020;-72
2022/04/09 04:07:30;;;;;;;34.25;17.95;;;4.80;99.90;;;;;;5114025;28;20070;-73
2022/04/09 04:10:00;;;;;;;29.35;16.10;;;4.80;99.90;;;;;;5114373;28;20023;-72
2022/04/09 04:12:28;;;;;;;30.67;17.35;;;4.80;99.90;;;;;;5114347;28;20027;-74
2022/04/09 04:14:53;;;;;;;32.08;18.17;;;4.80;99.90;;;;;;5114811;28;20093;-72
2022/04/09 04:17:19;;;;;;;27.33;14.75;;;4.80;99.90;;;;;;5115940;28;20123;-72
2022/04/09 04:19:45;;;;;;;28.25;17.15;;;4.90;99.90;;;;;;5115676;28;20022;-72
2022/04/09 04:22:10;;;;;;;29.98;18.63;;;4.90;99.90;;;;;;5114395;28;20034;-73
2022/04/09 04:24:39;;;;;;;34.20;21.75;;;5.00;99.90;;;;;;5114544;28;20020;-72
2022/04/09 04:27:05;;;;;;;17.25;12.43;;;5.00;99.90;;;;;;5115767;28;20034;-73
2022/04/09 04:29:32;;;;;;;16.75;11.00;;;4.80;99.90;;;;;;5114478;28;20030;-72
2022/04/09 04:31:58;;;;;;;16.35;11.73;;;4.80;99.90;;;;;;5115099;28;20040;-72
2022/04/09 04:34:23;;;;;;;12.57;9.38;;;4.80;99.90;;;;;;5115691;28;20031;-73
2022/04/09 04:36:49;;;;;;;7.75;5.57;;;4.80;99.90;;;;;;5115590;27;20103;-72
2022/04/09 04:39:16;;;;;;;8.35;5.53;;;4.80;99.90;;;;;;5115475;28;20103;-73
2022/04/09 04:41:42;;;;;;;6.72;4.30;;;4.80;99.90;;;;;;5114335;28;20526;-73
2022/04/09 04:44:08;;;;;;;10.80;5.32;;;4.90;99.90;;;;;;5115573;28;20174;-73
2022/04/09 04:46:34;;;;;;;6.43;4.78;;;4.90;99.90;;;;;;5115335;28;20022;-73
2022/04/09 04:49:00;;;;;;;6.40;4.35;;;4.90;99.90;;;;;;5115393;28;20161;-72
2022/04/09 04:51:25;;;;;;;4.90;3.67;;;4.90;99.90;;;;;;5115282;28;20031;-73
2022/04/09 04:53:51;;;;;;;6.32;3.92;;;4.80;99.90;;;;;;5114792;28;20039;-73
2022/04/09 04:56:16;;;;;;;9.35;5.07;;;4.70;99.90;;;;;;5101701;28;20471;-73
2022/04/09 04:58:42;;;;;;;4.50;3.75;;;4.70;99.90;;;;;;5094609;28;20042;-72
2022/04/09 05:01:08;;;;;;;5.95;4.07;;;4.70;99.90;;;;;;5113800;28;20032;-72
2022/04/09 05:03:37;;;;;;;3.70;3.35;;;4.70;99.90;;;;;;5114853;28;20032;-72
2022/04/09 05:06:03;;;;;;;4.13;3.67;;;4.70;99.90;;;;;;5114812;28;20027;-74
2022/04/09 05:08:29;;;;;;;6.82;4.32;;;4.60;99.90;;;;;;5114711;28;20411;-73
2022/04/09 05:10:54;;;;;;;4.10;3.55;;;4.70;99.90;;;;;;5113741;28;20079;-71
2022/04/09 05:13:20;;;;;;;6.07;4.10;;;4.60;99.90;;;;;;5114785;28;20023;-72
2022/04/09 05:15:47;;;;;;;5.53;4.00;;;4.60;99.90;;;;;;5114727;28;20034;-71
2022/04/09 05:18:12;;;;;;;7.30;4.85;;;4.50;99.90;;;;;;5114098;28;20066;-72
2022/04/09 05:20:38;;;;;;;5.60;5.00;;;4.60;99.90;;;;;;5114191;28;20413;-72
2022/04/09 05:23:04;;;;;;;79.43;34.58;;;4.50;99.90;;;;;;5113994;28;20015;-72
2022/04/09 05:25:31;;;;;;;154.45;67.80;;;4.50;99.90;;;;;;5112535;28;20026;-73
2022/04/09 05:28:04;;;;;;;11.45;6.68;;;4.50;99.90;;;;;;5114403;28;20022;-72
2022/04/09 05:30:30;;;;;;;54.58;30.95;;;4.40;99.90;;;;;;5112003;28;20178;-73
2022/04/09 05:32:56;;;;;;;5.30;4.43;;;4.40;99.90;;;;;;5112654;28;20044;-72
2022/04/09 05:35:22;;;;;;;5.95;5.35;;;4.30;99.90;;;;;;5112901;28;20020;-73
2022/04/09 05:37:48;;;;;;;13.30;10.70;;;4.30;99.90;;;;;;5112919;28;20020;-72
2022/04/09 05:40:15;;;;;;;24.48;17.13;;;4.20;99.90;;;;;;5112185;28;20077;-72
2022/04/09 05:42:40;;;;;;;4.47;3.92;;;4.10;99.90;;;;;;5112892;28;20041;-72
2022/04/09 05:45:07;;;;;;;3.90;3.45;;;4.00;99.90;;;;;;5112481;28;20103;-73
2022/04/09 05:47:33;;;;;;;13.32;11.95;;;4.00;99.90;;;;;;5114004;28;20528;-71
2022/04/09 05:49:58;;;;;;;12.57;11.38;;;3.80;99.90;;;;;;5113718;28;20108;-73
2022/04/09 05:52:24;;;;;;;13.57;11.10;;;3.70;99.90;;;;;;5113740;28;20031;-74
2022/04/09 05:54:50;;;;;;;5.88;5.13;;;3.60;99.90;;;;;;5113457;28;20016;-74
2022/04/09 05:57:16;;;;;;;107.07;60.47;;;3.50;99.90;;;;;;5112876;28;20020;-72
2022/04/09 05:59:42;;;;;;;22.85;15.75;;;3.50;99.90;;;;;;5112887;28;20050;-72
2022/04/09 06:02:08;;;;;;;8.10;6.35;;;3.50;99.90;;;;;;5112495;28;20496;-72
2022/04/09 06:04:34;;;;;;;40.97;28.15;;;3.40;99.90;;;;;;5113438;28;20023;-73
2022/04/09 06:07:02;;;;;;;18.15;11.93;;;3.30;99.90;;;;;;5113457;28;20023;-73
2022/04/09 06:09:29;;;;;;;25.55;20.35;;;3.20;99.90;;;;;;5113318;28;20023;-73
2022/04/09 06:11:54;;;;;;;30.10;25.23;;;3.10;99.90;;;;;;5113714;28;20396;-73
2022/04/09 06:14:20;;;;;;;19.40;16.83;;;3.00;99.90;;;;;;5111824;28;20016;-74
2022/04/09 06:16:46;;;;;;;16.23;13.10;;;2.90;99.90;;;;;;5111148;28;20025;-72
2022/04/09 06:19:11;;;;;;;14.18;11.85;;;2.90;99.90;;;;;;5111727;28;20028;-72
2022/04/09 06:21:37;;;;;;;47.35;22.75;;;2.70;99.90;;;;;;5112984;28;20019;-71
2022/04/09 06:24:03;;;;;;;35.35;17.20;;;2.60;99.90;;;;;;5111373;28;20012;-72
2022/04/09 06:26:28;;;;;;;9.52;6.20;;;2.50;99.90;;;;;;5113158;28;20102;-74
2022/04/09 06:28:55;;;;;;;10.32;8.70;;;2.50;99.90;;;;;;5113151;28;20425;-73
2022/04/09 06:31:20;;;;;;;7.28;6.32;;;2.40;99.90;;;;;;5112765;28;20040;-71
2022/04/09 06:33:46;;;;;;;6.68;5.80;;;2.20;99.90;;;;;;5112671;28;20496;-71
2022/04/09 06:36:11;;;;;;;6.75;5.80;;;2.20;99.90;;;;;;5112741;28;20046;-71
2022/04/09 06:38:37;;;;;;;5.47;4.72;;;2.30;99.90;;;;;;5112518;28;20030;-72
2022/04/09 06:41:03;;;;;;;7.85;4.85;;;2.30;99.90;;;;;;5112781;28;20019;-74
2022/04/09 06:43:30;;;;;;;16.88;9.82;;;2.20;99.90;;;;;;5113322;28;20073;-73
2022/04/09 06:45:56;;;;;;;11.73;6.55;;;2.20;99.90;;;;;;5113120;28;20103;-73
2022/04/09 06:48:21;;;;;;;3.70;3.28;;;2.20;99.90;;;;;;5112602;28;20551;-74
2022/04/09 06:50:47;;;;;;;6.93;4.78;;;2.20;99.90;;;;;;5112756;28;20045;-73
2022/04/09 06:53:12;;;;;;;8.77;5.38;;;2.30;99.90;;;;;;5112925;28;20019;-73
2022/04/09 06:55:38;;;;;;;7.70;4.70;;;2.30;99.90;;;;;;5113406;28;20374;-74
2022/04/09 06:58:04;;;;;;;4.53;4.05;;;2.20;99.90;;;;;;5116847;28;20028;-73
2022/04/09 07:00:32;;;;;;;6.72;5.15;;;2.20;99.90;;;;;;5117277;28;20031;-73
2022/04/09 07:02:58;;;;;;;6.15;5.20;;;2.30;99.90;;;;;;5115761;28;20038;-71
2022/04/09 07:05:23;;;;;;;5.15;4.60;;;2.40;99.90;;;;;;5115635;28;20024;-72
2022/04/09 07:07:49;;;;;;;5.05;4.55;;;2.40;99.90;;;;;;5117292;28;20400;-73
2022/04/09 07:10:15;;;;;;;5.15;4.65;;;2.50;99.90;;;;;;5113344;28;20468;-74
2022/04/09 07:12:40;;;;;;;6.15;4.97;;;2.50;99.90;;;;;;5102454;28;20085;-72
2022/04/09 07:15:07;;;;;;;9.00;7.05;;;2.50;99.90;;;;;;5114897;28;20024;-72
2022/04/09 07:17:32;;;;;;;5.80;5.20;;;2.50;99.90;;;;;;5097327;28;20481;-72
2022/04/09 07:20:05;;;;;;;7.15;5.55;;;2.40;99.90;;;;;;5107246;28;20024;-73
2022/04/09 07:22:31;;;;;;;6.53;5.93;;;2.40;99.90;;;;;;5113554;28;20538;-72
2022/04/09 07:24:57;;;;;;;16.95;13.27;;;2.40;99.90;;;;;;5113358;28;20016;-73
2022/04/09 07:27:43;;;;;;;7.03;6.25;;;2.40;99.90;;;;;;5114246;27;20040;-73
2022/04/09 07:30:12;;;;;;;10.00;8.00;;;2.30;99.90;;;;;;5114877;28;20035;-73
2022/04/09 07:32:38;;;;;;;29.45;13.50;;;2.30;99.90;;;;;;5114490;28;20038;-72
2022/04/09 07:35:05;;;;;;;17.58;10.05;;;2.30;99.90;;;;;;5115434;28;20099;-72
2022/04/09 07:37:31;;;;;;;14.77;9.32;;;2.40;99.90;;;;;;5114971;28;20107;-72
2022/04/09 07:39:57;;;;;;;11.27;7.95;;;2.40;99.90;;;;;;5115002;28;20020;-74
2022/04/09 07:42:23;;;;;;;9.27;7.07;;;2.50;99.90;;;;;;5115581;27;20044;-73
2022/04/09 07:44:49;;;;;;;19.55;11.00;;;2.40;99.90;;;;;;5114409;28;20030;-74
2022/04/09 07:47:15;;;;;;;13.05;8.55;;;2.40;99.90;;;;;;5115654;27;20031;-72
2022/04/09 07:49:46;;;;;;;22.05;11.82;;;2.40;99.90;;;;;;5114081;28;20412;-71
2022/04/09 07:52:12;;;;;;;12.57;8.00;;;2.40;99.90;;;;;;5115694;27;20126;-73
2022/04/09 07:54:38;;;;;;;12.35;9.75;;;2.40;99.90;;;;;;5113340;28;20565;-73
2022/04/09 07:57:04;;;;;;;10.57;7.32;;;2.40;99.90;;;;;;5113958;27;20038;-74
2022/04/09 07:59:30;;;;;;;11.10;8.20;;;2.30;99.90;;;;;;5115149;28;20051;-73
2022/04/09 08:01:55;;;;;;;8.27;6.72;;;2.40;99.90;;;;;;5114018;28;20124;-75
2022/04/09 08:04:21;;;;;;;10.38;7.80;;;2.40;99.90;;;;;;5114257;28;20442;-75
2022/04/09 08:06:47;;;;;;;8.65;6.85;;;2.40;99.90;;;;;;5113535;27;20028;-74
2022/04/09 08:09:12;;;;;;;9.55;7.45;;;2.60;99.90;;;;;;5114358;28;20481;-73
2022/04/09 08:11:38;;;;;;;11.07;7.30;;;2.50;99.90;;;;;;5114509;27;20032;-74
2022/04/09 08:14:04;;;;;;;12.80;9.30;;;2.60;99.90;;;;;;5115417;28;20027;-74
2022/04/09 08:16:29;;;;;;;11.07;8.50;;;2.60;99.90;;;;;;5114864;28;20047;-74
2022/04/09 08:18:55;;;;;;;7.93;6.97;;;2.70;99.90;;;;;;5115164;28;20027;-74
2022/04/09 08:21:21;;;;;;;9.88;8.20;;;2.70;99.90;;;;;;5114530;28;20030;-75
2022/04/09 08:23:47;;;;;;;10.40;8.02;;;2.70;99.90;;;;;;5113207;28;20538;-74
2022/04/09 08:26:13;;;;;;;8.63;7.00;;;2.70;99.90;;;;;;5115839;28;20019;-73
2022/04/09 08:28:39;;;;;;;6.40;5.50;;;2.80;99.90;;;;;;5115609;28;20358;-73
2022/04/09 08:31:04;;;;;;;8.40;6.68;;;2.80;99.90;;;;;;5114202;28;20032;-72
2022/04/09 08:33:30;;;;;;;11.75;7.47;;;2.80;99.90;;;;;;5115279;27;20547;-72
2022/04/09 08:35:55;;;;;;;9.63;5.95;;;2.90;99.90;;;;;;5113710;27;20028;-75
2022/04/09 08:38:21;;;;;;;7.97;6.45;;;3.00;99.90;;;;;;5112878;28;20019;-73
2022/04/09 08:40:47;;;;;;;9.70;7.32;;;3.00;99.90;;;;;;5113405;28;20020;-72
2022/04/09 08:43:13;;;;;;;12.05;8.68;;;3.00;99.90;;;;;;5115597;28;20099;-74
2022/04/09 08:45:42;;;;;;;11.07;7.60;;;3.00;99.90;;;;;;5115576;28;20015;-73
2022/04/09 08:48:09;;;;;;;14.50;8.57;;;3.20;99.90;;;;;;5113868;28;20026;-74
2022/04/09 08:50:36;;;;;;;15.98;9.55;;;3.20;99.90;;;;;;5113644;28;20046;-75
2022/04/09 08:53:06;;;;;;;13.52;8.93;;;3.40;99.90;;;;;;5114991;28;20026;-74
2022/04/09 08:55:36;;;;;;;15.38;11.23;;;3.50;99.90;;;;;;5113963;28;20027;-75
2022/04/09 08:58:03;;;;;;;20.17;12.25;;;3.60;99.90;;;;;;5094875;27;20073;-74
2022/04/09 09:00:29;;;;;;;15.93;10.20;;;3.80;99.90;;;;;;5096351;28;20027;-75
2022/04/09 09:02:58;;;;;;;18.80;10.93;;;3.90;99.90;;;;;;5113451;28;20027;-75
2022/04/09 09:05:33;;;;;;;18.40;11.15;;;3.90;99.90;;;;;;5115199;28;20012;-74
2022/04/09 09:07:58;;;;;;;16.90;10.77;;;4.00;99.90;;;;;;5113471;28;20031;-75
2022/04/09 09:10:24;;;;;;;17.52;11.50;;;4.10;99.90;;;;;;5111798;28;20026;-75
2022/04/09 09:12:58;;;;;;;17.70;11.90;;;4.20;99.90;;;;;;5113882;28;20389;-74
2022/04/09 09:15:24;;;;;;;15.85;11.38;;;4.30;99.90;;;;;;5113379;28;20055;-74
2022/04/09 09:17:55;;;;;;;19.38;12.13;;;4.30;99.90;;;;;;5113319;28;20049;-74
2022/04/09 09:20:20;;;;;;;15.20;10.25;;;4.40;99.90;;;;;;5113326;28;20027;-74
2022/04/09 09:22:48;;;;;;;13.50;10.52;;;4.50;99.90;;;;;;5114681;28;20020;-74
2022/04/09 09:25:13;;;;;;;15.50;11.13;;;4.30;99.90;;;;;;5113038;28;20031;-74
2022/04/09 09:27:40;;;;;;;14.50;9.35;;;4.40;99.90;;;;;;5112420;28;20031;-74
2022/04/09 09:30:08;;;;;;;17.92;12.07;;;4.20;99.90;;;;;;5114402;28;20020;-75
2022/04/09 09:32:35;;;;;;;19.85;12.73;;;4.30;99.90;;;;;;5114308;28;20424;-74
2022/04/09 09:35:01;;;;;;;18.10;12.13;;;4.20;99.90;;;;;;5114549;28;20019;-71
2022/04/09 09:37:29;;;;;;;11.73;9.20;;;4.10;99.90;;;;;;5096372;28;20073;-74
2022/04/09 09:39:56;;;;;;;22.02;11.35;;;4.10;99.90;;;;;;5114389;27;20024;-74
2022/04/09 09:42:23;;;;;;;18.52;11.80;;;4.10;99.90;;;;;;5113316;28;20055;-73
2022/04/09 09:44:49;;;;;;;19.90;12.60;;;4.10;99.90;;;;;;5113928;28;20016;-74
2022/04/09 09:47:15;;;;;;;16.08;11.98;;;4.20;99.90;;;;;;5114248;28;20024;-73
2022/04/09 09:49:59;;;;;;;18.45;11.70;;;4.20;99.90;;;;;;5110961;28;20114;-73
2022/04/09 09:52:36;;;;;;;17.02;12.27;;;4.20;99.90;;;;;;5111952;28;20448;-74
2022/04/09 09:55:14;;;;;;;18.38;13.48;;;4.30;99.90;;;;;;5110702;28;20081;-71
2022/04/09 09:57:41;;;;;;;20.73;12.82;;;4.30;99.90;;;;;;5113298;28;20024;-71
2022/04/09 10:00:11;;;;;;;20.13;11.80;;;4.40;99.90;;;;;;5112126;28;20012;-74
2022/04/09 10:02:39;;;;;;;14.65;10.73;;;4.50;99.90;;;;;;5113175;28;20069;-75
2022/04/09 10:05:05;;;;;;;16.33;10.18;;;4.50;99.90;;;;;;5112020;28;20016;-71
2022/04/09 10:07:31;;;;;;;23.50;12.13;;;4.50;99.90;;;;;;5112052;28;20020;-72
2022/04/09 10:10:00;;;;;;;16.58;10.23;;;4.60;99.90;;;;;;5111511;28;20019;-73
2022/04/09 10:12:26;;;;;;;15.25;10.43;;;4.70;99.90;;;;;;5112909;27;20039;-71
2022/04/09 10:14:54;;;;;;;16.17;10.52;;;4.70;99.90;;;;;;5112475;28;20028;-75
2022/04/09 10:17:21;;;;;;;18.67;11.30;;;4.80;99.90;;;;;;5113744;28;20026;-72
2022/04/09 10:19:55;;;;;;;14.43;8.77;;;5.00;99.90;;;;;;5113742;28;20027;-73
2022/04/09 10:22:27;;;;;;;17.52;10.35;;;5.10;99.90;;;;;;5113546;28;20059;-74
2022/04/09 10:24:55;;;;;;;16.33;11.32;;;5.20;99.90;;;;;;5113161;28;20024;-74
2022/04/09 10:27:39;;;;;;;13.07;9.73;;;5.20;99.90;;;;;;5111615;28;20027;-71
2022/04/09 10:30:11;;;;;;;16.85;9.88;;;5.10;99.90;;;;;;5111221;28;20488;-71
2022/04/09 10:32:43;;;;;;;13.93;10.80;;;5.00;99.90;;;;;;5108721;28;20050;-72
2022/04/09 10:35:38;;;;;;;16.42;10.57;;;5.00;99.90;;;;;;5111755;28;20042;-72
2022/04/09 10:38:07;;;;;;;17.50;11.35;;;5.10;99.90;;;;;;5111530;28;20070;-70
2022/04/09 10:40:33;;;;;;;18.23;12.65;;;5.30;99.90;;;;;;5111767;28;20020;-74
2022/04/09 10:43:01;;;;;;;20.15;13.20;;;5.40;99.90;;;;;;5113456;28;20051;-70
2022/04/09 10:45:28;;;;;;;17.02;11.18;;;5.60;99.90;;;;;;5110680;28;20027;-71
2022/04/09 10:48:08;;;;;;;14.07;11.15;;;5.80;99.90;;;;;;5113345;28;20542;-72
2022/04/09 10:50:59;;;;;;;16.38;12.57;;;5.80;99.90;;;;;;5112014;28;20024;-72
2022/04/09 10:53:27;;;;;;;11.57;8.20;;;5.80;99.90;;;;;;5111665;28;20151;-73
2022/04/09 10:56:13;;;;;;;14.57;10.18;;;5.60;99.90;;;;;;5112300;28;20022;-73
2022/04/09 10:59:00;;;;;;;13.35;9.02;;;5.60;99.90;;;;;;5112311;28;20024;-72
2022/04/09 11:01:51;;;;;;;14.85;11.35;;;5.50;99.90;;;;;;5110986;28;20047;-76
2022/04/09 11:04:25;;;;;;;13.23;8.68;;;5.50;99.90;;;;;;5111918;28;20015;-72
2022/04/09 11:07:25;;;;;;;20.02;9.57;;;5.30;99.90;;;;;;5111946;28;20026;-72
2022/04/09 11:09:56;;;;;;;37.55;18.80;;;5.30;99.90;;;;;;5112660;28;20023;-73
2022/04/09 11:12:40;;;;;;;12.77;8.90;;;5.20;99.90;;;;;;5113004;28;20106;-71
2022/04/09 11:15:15;;;;;;;13.48;9.95;;;5.30;99.90;;;;;;5112165;28;20366;-73
2022/04/09 11:17:46;;;;;;;49.78;31.52;;;5.30;99.90;;;;;;5113255;28;20031;-73
2022/04/09 11:20:12;;;;;;;21.48;16.15;;;5.70;99.90;;;;;;5113176;28;20509;-72
2022/04/09 11:22:43;;;;;;;12.70;9.32;;;5.80;99.90;;;;;;5112757;28;20028;-72
2022/04/09 11:25:24;;;;;;;13.38;9.27;;;5.90;99.90;;;;;;5111148;28;20028;-73
2022/04/09 11:28:13;;;;;;;70.75;38.08;;;6.10;99.90;;;;;;5092614;28;20020;-73
2022/04/09 11:30:54;;;;;;;19.50;12.15;;;6.10;99.90;;;;;;5088108;28;20123;-73
2022/04/09 11:33:21;;;;;;;7.68;6.55;;;6.40;99.90;;;;;;5092497;28;20044;-73
2022/04/09 11:35:50;;;;;;;19.33;15.05;;;6.20;97.60;;;;;;5092651;28;20404;-73
2022/04/09 11:38:16;;;;;;;85.35;40.22;;;6.20;97.20;;;;;;5091535;28;20020;-72
2022/04/09 11:40:47;;;;;;;81.70;34.17;;;6.10;97.00;;;;;;5091972;28;20132;-73
2022/04/09 11:43:18;;;;;;;179.63;67.57;;;6.00;90.50;;;;;;5094745;28;20473;-74
2022/04/09 11:45:44;;;;;;;421.13;159.48;;;5.90;88.10;;;;;;5094984;28;20016;-74
2022/04/09 11:48:25;;;;;;;434.15;152.75;;;5.80;89.20;;;;;;5096050;28;20030;-72
2022/04/09 11:50:52;;;;;;;315.17;115.80;;;5.80;88.60;;;;;;5094721;28;20107;-73
2022/04/09 11:53:24;;;;;;;386.98;149.18;;;5.90;94.20;;;;;;5096052;28;20428;-74
2022/04/09 11:56:00;;;;;;;253.73;92.60;;;5.80;92.00;;;;;;5110789;28;20023;-73
2022/04/09 11:58:34;;;;;;;154.95;56.95;;;5.80;89.60;;;;;;5114567;28;20016;-72
2022/04/09 12:01:05;;;;;;;280.45;100.07;;;5.90;94.50;;;;;;5116381;28;20028;-73
2022/04/09 12:03:31;;;;;;;214.70;83.18;;;5.90;92.80;;;;;;5115805;28;20423;-73
2022/04/09 12:06:00;;;;;;;74.53;35.42;;;6.00;93.90;;;;;;5116285;28;20023;-73
2022/04/09 12:08:28;;;;;;;48.40;26.30;;;6.00;89.80;;;;;;5115918;28;20015;-71
2022/04/09 12:10:58;;;;;;;98.93;41.63;;;6.00;86.40;;;;;;5116152;28;20067;-72
2022/04/09 12:13:33;;;;;;;145.60;61.05;;;6.00;85.50;;;;;;5115955;28;20099;-72
2022/04/09 12:16:10;;;;;;;39.90;19.95;;;6.10;85.40;;;;;;5114825;28;20103;-71
2022/04/09 12:18:36;;;;;;;187.25;81.55;;;6.20;84.90;;;;;;5116052;28;20027;-73
2022/04/09 12:21:21;;;;;;;88.70;41.25;;;6.20;86.20;;;;;;5115888;28;20080;-73
2022/04/09 12:24:08;;;;;;;72.70;36.35;;;6.20;87.30;;;;;;5115233;28;20016;-72
2022/04/09 12:26:43;;;;;;;190.05;87.53;;;6.30;89.40;;;;;;5115765;28;20016;-73
2022/04/09 12:29:11;;;;;;;68.88;39.63;;;6.20;87.90;;;;;;5115605;28;20081;-71
2022/04/09 12:31:37;;;;;;;30.23;18.08;;;6.20;88.50;;;;;;5114885;28;20035;-74
2022/04/09 12:34:03;;;;;;;109.00;59.42;;;6.10;87.40;;;;;;5115207;28;20038;-73
2022/04/09 12:36:29;;;;;;;35.85;24.00;;;6.00;88.60;;;;;;5115676;27;20522;-72
2022/04/09 12:38:55;;;;;;;38.13;25.73;;;6.00;89.60;;;;;;5113804;28;20031;-73
2022/04/09 12:41:20;;;;;;;39.67;23.23;;;5.90;92.00;;;;;;5113059;28;20030;-71
2022/04/09 12:43:47;;;;;;;26.88;14.35;;;5.80;94.90;;;;;;5113832;28;20016;-73
2022/04/09 12:46:18;;;;;;;16.92;12.73;;;5.80;99.90;;;;;;5114574;28;20469;-71
2022/04/09 12:48:45;;;;;;;34.55;24.13;;;5.50;99.90;;;;;;5113997;28;20016;-73